sensor_id;sensor_type;location;lat;lon;timestamp;P1;durP1;ratioP1;P2;durP2;ratioP2
23565;SDS011;22140;48.988;8.544;2024-03-06T00:00:42;11.50;;;5.68;;
23565;SDS011;22140;48.988;8.544;2024-03-06T00:05:44;11.45;;;5.10;;
23565;SDS011;22140;48.988;8.544;2024-03-06T00:10:46;10.68;;;4.68;;
23565;SDS011;22140;48.988;8.544;2024-03-06T00:15:48;11.77;;;5.10;;
23565;SDS011;22140;48.988;8.544;2024-03-06T00:20:49;12.00;;;5.55;;
23565;SDS011;22140;48.988;8.544;2024-03-06T00:25:51;12.00;;;5.10;;
23565;SDS011;22140;48.988;8.544;2024-03-06T00:30:52;9.73;;;4.38;;
23565;SDS011;22140;48.988;8.544;2024-03-06T00:35:54;10.50;;;4.40;;
23565;SDS011;22140;48.988;8.544;2024-03-06T00:40:55;12.13;;;4.43;;
23565;SDS011;22140;48.988;8.544;2024-03-06T00:45:58;10.00;;;4.10;;
23565;SDS011;22140;48.988;8.544;2024-03-06T00:51:00;11.50;;;4.60;;
23565;SDS011;22140;48.988;8.544;2024-03-06T00:56:02;12.52;;;4.93;;
23565;SDS011;22140;48.988;8.544;2024-03-06T01:01:04;11.57;;;4.50;;
23565;SDS011;22140;48.988;8.544;2024-03-06T01:06:06;11.23;;;4.33;;
23565;SDS011;22140;48.988;8.544;2024-03-06T01:11:07;14.73;;;6.15;;
23565;SDS011;22140;48.988;8.544;2024-03-06T01:16:08;14.07;;;6.68;;
23565;SDS011;22140;48.988;8.544;2024-03-06T01:21:10;13.88;;;5.78;;
23565;SDS011;22140;48.988;8.544;2024-03-06T01:26:11;18.63;;;6.80;;
23565;SDS011;22140;48.988;8.544;2024-03-06T01:31:13;13.33;;;5.63;;
23565;SDS011;22140;48.988;8.544;2024-03-06T01:36:14;10.20;;;4.72;;
23565;SDS011;22140;48.988;8.544;2024-03-06T01:41:16;13.07;;;4.57;;
23565;SDS011;22140;48.988;8.544;2024-03-06T01:46:17;12.00;;;4.32;;
23565;SDS011;22140;48.988;8.544;2024-03-06T01:51:19;9.90;;;4.68;;
23565;SDS011;22140;48.988;8.544;2024-03-06T01:56:20;11.13;;;4.23;;
23565;SDS011;22140;48.988;8.544;2024-03-06T02:01:22;9.40;;;3.92;;
23565;SDS011;22140;48.988;8.544;2024-03-06T02:06:23;9.85;;;3.92;;
23565;SDS011;22140;48.988;8.544;2024-03-06T02:11:25;10.20;;;4.05;;
23565;SDS011;22140;48.988;8.544;2024-03-06T02:16:26;9.25;;;4.05;;
23565;SDS011;22140;48.988;8.544;2024-03-06T02:21:28;9.00;;;4.00;;
23565;SDS011;22140;48.988;8.544;2024-03-06T02:26:29;11.05;;;4.30;;
23565;SDS011;22140;48.988;8.544;2024-03-06T02:31:31;9.25;;;4.45;;
23565;SDS011;22140;48.988;8.544;2024-03-06T02:36:32;8.82;;;3.80;;
23565;SDS011;22140;48.988;8.544;2024-03-06T02:41:35;9.07;;;3.85;;
23565;SDS011;22140;48.988;8.544;2024-03-06T02:46:37;10.40;;;3.90;;
23565;SDS011;22140;48.988;8.544;2024-03-06T02:51:38;10.40;;;3.75;;
23565;SDS011;22140;48.988;8.544;2024-03-06T02:56:40;8.70;;;3.63;;
23565;SDS011;22140;48.988;8.544;2024-03-06T03:01:41;10.77;;;4.38;;
23565;SDS011;22140;48.988;8.544;2024-03-06T03:06:42;10.10;;;3.50;;
23565;SDS011;22140;48.988;8.544;2024-03-06T03:11:44;10.30;;;3.90;;
23565;SDS011;22140;48.988;8.544;2024-03-06T03:16:45;8.40;;;3.80;;
23565;SDS011;22140;48.988;8.544;2024-03-06T03:21:47;9.15;;;4.13;;
23565;SDS011;22140;48.988;8.544;2024-03-06T03:26:48;9.88;;;3.60;;
23565;SDS011;22140;48.988;8.544;2024-03-06T03:31:50;10.75;;;3.83;;
23565;SDS011;22140;48.988;8.544;2024-03-06T03:36:51;8.77;;;3.20;;
23565;SDS011;22140;48.988;8.544;2024-03-06T03:41:52;9.95;;;3.70;;
23565;SDS011;22140;48.988;8.544;2024-03-06T03:46:54;8.02;;;3.53;;
23565;SDS011;22140;48.988;8.544;2024-03-06T03:51:55;12.65;;;3.97;;
23565;SDS011;22140;48.988;8.544;2024-03-06T03:56:56;12.15;;;3.95;;
23565;SDS011;22140;48.988;8.544;2024-03-06T04:02:00;8.47;;;3.27;;
23565;SDS011;22140;48.988;8.544;2024-03-06T04:07:01;8.93;;;3.50;;
23565;SDS011;22140;48.988;8.544;2024-03-06T04:12:03;9.85;;;3.92;;
23565;SDS011;22140;48.988;8.544;2024-03-06T04:17:05;9.15;;;3.40;;
23565;SDS011;22140;48.988;8.544;2024-03-06T04:22:06;9.40;;;3.35;;
23565;SDS011;22140;48.988;8.544;2024-03-06T04:27:07;8.90;;;3.77;;
23565;SDS011;22140;48.988;8.544;2024-03-06T04:32:09;9.90;;;4.25;;
23565;SDS011;22140;48.988;8.544;2024-03-06T04:37:10;9.15;;;3.58;;
23565;SDS011;22140;48.988;8.544;2024-03-06T04:42:12;14.02;;;4.25;;
23565;SDS011;22140;48.988;8.544;2024-03-06T04:47:13;10.40;;;3.65;;
23565;SDS011;22140;48.988;8.544;2024-03-06T04:52:15;9.80;;;3.40;;
23565;SDS011;22140;48.988;8.544;2024-03-06T04:57:16;14.93;;;3.45;;
23565;SDS011;22140;48.988;8.544;2024-03-06T05:02:17;9.63;;;3.55;;
23565;SDS011;22140;48.988;8.544;2024-03-06T05:07:19;13.40;;;4.28;;
23565;SDS011;22140;48.988;8.544;2024-03-06T05:12:38;9.23;;;3.15;;
23565;SDS011;22140;48.988;8.544;2024-03-06T05:17:56;9.90;;;3.40;;
23565;SDS011;22140;48.988;8.544;2024-03-06T05:23:16;9.43;;;3.70;;
23565;SDS011;22140;48.988;8.544;2024-03-06T05:28:36;10.27;;;3.53;;
23565;SDS011;22140;48.988;8.544;2024-03-06T05:33:55;12.80;;;4.10;;
23565;SDS011;22140;48.988;8.544;2024-03-06T05:39:14;17.85;;;5.35;;
23565;SDS011;22140;48.988;8.544;2024-03-06T05:44:33;12.67;;;4.50;;
23565;SDS011;22140;48.988;8.544;2024-03-06T05:49:52;20.35;;;4.40;;
23565;SDS011;22140;48.988;8.544;2024-03-06T05:55:11;86.00;;;10.60;;
23565;SDS011;22140;48.988;8.544;2024-03-06T06:00:30;22.35;;;4.55;;
23565;SDS011;22140;48.988;8.544;2024-03-06T06:05:31;37.70;;;5.40;;
23565;SDS011;22140;48.988;8.544;2024-03-06T06:10:33;9.83;;;3.90;;
23565;SDS011;22140;48.988;8.544;2024-03-06T06:15:34;10.65;;;3.90;;
23565;SDS011;22140;48.988;8.544;2024-03-06T06:20:36;10.75;;;4.25;;
23565;SDS011;22140;48.988;8.544;2024-03-06T06:25:37;10.50;;;4.03;;
23565;SDS011;22140;48.988;8.544;2024-03-06T06:30:38;10.63;;;4.22;;
23565;SDS011;22140;48.988;8.544;2024-03-06T06:35:40;9.67;;;3.90;;
23565;SDS011;22140;48.988;8.544;2024-03-06T06:40:41;10.93;;;4.43;;
23565;SDS011;22140;48.988;8.544;2024-03-06T06:45:43;13.00;;;5.57;;
23565;SDS011;22140;48.988;8.544;2024-03-06T06:50:44;12.40;;;5.53;;
23565;SDS011;22140;48.988;8.544;2024-03-06T06:55:49;12.23;;;5.45;;
23565;SDS011;22140;48.988;8.544;2024-03-06T07:00:50;14.43;;;4.67;;
23565;SDS011;22140;48.988;8.544;2024-03-06T07:05:52;13.00;;;5.13;;
23565;SDS011;22140;48.988;8.544;2024-03-06T07:10:53;10.82;;;5.00;;
23565;SDS011;22140;48.988;8.544;2024-03-06T07:15:56;11.88;;;4.60;;
23565;SDS011;22140;48.988;8.544;2024-03-06T07:20:57;12.07;;;4.00;;
23565;SDS011;22140;48.988;8.544;2024-03-06T07:25:58;13.13;;;5.13;;
23565;SDS011;22140;48.988;8.544;2024-03-06T07:31:00;9.23;;;3.85;;
23565;SDS011;22140;48.988;8.544;2024-03-06T07:36:02;11.27;;;4.25;;
23565;SDS011;22140;48.988;8.544;2024-03-06T07:41:03;11.20;;;3.13;;
23565;SDS011;22140;48.988;8.544;2024-03-06T07:46:05;11.23;;;3.85;;
23565;SDS011;22140;48.988;8.544;2024-03-06T07:51:12;8.40;;;3.20;;
23565;SDS011;22140;48.988;8.544;2024-03-06T07:56:13;8.40;;;3.22;;
23565;SDS011;22140;48.988;8.544;2024-03-06T08:01:15;9.55;;;3.17;;
23565;SDS011;22140;48.988;8.544;2024-03-06T08:06:18;8.25;;;2.88;;
23565;SDS011;22140;48.988;8.544;2024-03-06T08:11:19;10.13;;;3.13;;
23565;SDS011;22140;48.988;8.544;2024-03-06T08:16:23;8.87;;;3.87;;
23565;SDS011;22140;48.988;8.544;2024-03-06T08:21:24;9.35;;;3.53;;
23565;SDS011;22140;48.988;8.544;2024-03-06T08:26:26;10.77;;;3.63;;
23565;SDS011;22140;48.988;8.544;2024-03-06T08:31:27;9.70;;;3.40;;
23565;SDS011;22140;48.988;8.544;2024-03-06T08:36:29;10.25;;;3.60;;
23565;SDS011;22140;48.988;8.544;2024-03-06T08:41:30;10.23;;;3.70;;
23565;SDS011;22140;48.988;8.544;2024-03-06T08:46:32;10.10;;;4.10;;
23565;SDS011;22140;48.988;8.544;2024-03-06T08:51:34;11.30;;;3.92;;
23565;SDS011;22140;48.988;8.544;2024-03-06T08:56:35;9.13;;;3.67;;
23565;SDS011;22140;48.988;8.544;2024-03-06T09:01:37;10.63;;;4.10;;
23565;SDS011;22140;48.988;8.544;2024-03-06T09:06:38;11.13;;;4.53;;
23565;SDS011;22140;48.988;8.544;2024-03-06T09:11:41;11.70;;;4.88;;
23565;SDS011;22140;48.988;8.544;2024-03-06T09:16:43;13.43;;;5.80;;
23565;SDS011;22140;48.988;8.544;2024-03-06T09:21:44;21.57;;;10.17;;
23565;SDS011;22140;48.988;8.544;2024-03-06T09:26:46;12.35;;;5.90;;
23565;SDS011;22140;48.988;8.544;2024-03-06T09:31:48;12.20;;;5.57;;
23565;SDS011;22140;48.988;8.544;2024-03-06T09:36:50;11.95;;;5.10;;
23565;SDS011;22140;48.988;8.544;2024-03-06T09:41:51;11.85;;;5.20;;
23565;SDS011;22140;48.988;8.544;2024-03-06T09:46:56;14.50;;;5.37;;
23565;SDS011;22140;48.988;8.544;2024-03-06T09:52:00;11.77;;;4.95;;
23565;SDS011;22140;48.988;8.544;2024-03-06T09:57:03;14.70;;;6.30;;
23565;SDS011;22140;48.988;8.544;2024-03-06T10:02:04;11.32;;;5.88;;
23565;SDS011;22140;48.988;8.544;2024-03-06T10:07:11;14.65;;;5.88;;
23565;SDS011;22140;48.988;8.544;2024-03-06T10:12:13;13.30;;;6.00;;
23565;SDS011;22140;48.988;8.544;2024-03-06T10:17:20;13.15;;;5.50;;
23565;SDS011;22140;48.988;8.544;2024-03-06T10:22:25;10.17;;;4.87;;
23565;SDS011;22140;48.988;8.544;2024-03-06T10:27:26;12.13;;;5.20;;
23565;SDS011;22140;48.988;8.544;2024-03-06T10:32:29;11.40;;;4.95;;
23565;SDS011;22140;48.988;8.544;2024-03-06T10:37:32;15.73;;;6.20;;
23565;SDS011;22140;48.988;8.544;2024-03-06T10:42:35;12.32;;;5.25;;
23565;SDS011;22140;48.988;8.544;2024-03-06T10:47:37;12.40;;;5.23;;
23565;SDS011;22140;48.988;8.544;2024-03-06T10:52:40;13.02;;;4.82;;
23565;SDS011;22140;48.988;8.544;2024-03-06T10:57:42;11.57;;;4.75;;
23565;SDS011;22140;48.988;8.544;2024-03-06T11:02:47;11.17;;;4.60;;
23565;SDS011;22140;48.988;8.544;2024-03-06T11:07:51;12.40;;;4.70;;
23565;SDS011;22140;48.988;8.544;2024-03-06T11:12:53;12.27;;;4.73;;
23565;SDS011;22140;48.988;8.544;2024-03-06T11:17:54;12.35;;;4.72;;
23565;SDS011;22140;48.988;8.544;2024-03-06T11:28:07;13.03;;;5.27;;
23565;SDS011;22140;48.988;8.544;2024-03-06T11:33:12;11.90;;;4.90;;
23565;SDS011;22140;48.988;8.544;2024-03-06T11:38:17;10.43;;;4.73;;
23565;SDS011;22140;48.988;8.544;2024-03-06T11:43:22;12.85;;;5.25;;
23565;SDS011;22140;48.988;8.544;2024-03-06T11:48:25;9.95;;;4.75;;
23565;SDS011;22140;48.988;8.544;2024-03-06T11:53:27;10.70;;;4.63;;
23565;SDS011;22140;48.988;8.544;2024-03-06T11:58:29;11.13;;;4.70;;
23565;SDS011;22140;48.988;8.544;2024-03-06T12:03:31;11.27;;;4.80;;
23565;SDS011;22140;48.988;8.544;2024-03-06T12:08:32;12.88;;;4.55;;
23565;SDS011;22140;48.988;8.544;2024-03-06T12:13:34;13.40;;;4.65;;
23565;SDS011;22140;48.988;8.544;2024-03-06T12:18:36;13.93;;;5.17;;
23565;SDS011;22140;48.988;8.544;2024-03-06T12:23:38;11.05;;;5.00;;
23565;SDS011;22140;48.988;8.544;2024-03-06T12:28:39;12.63;;;4.97;;
23565;SDS011;22140;48.988;8.544;2024-03-06T12:33:41;10.82;;;4.95;;
23565;SDS011;22140;48.988;8.544;2024-03-06T12:38:43;10.55;;;4.60;;
23565;SDS011;22140;48.988;8.544;2024-03-06T12:43:44;12.60;;;5.20;;
23565;SDS011;22140;48.988;8.544;2024-03-06T12:48:46;14.63;;;5.35;;
23565;SDS011;22140;48.988;8.544;2024-03-06T12:53:47;14.23;;;6.40;;
23565;SDS011;22140;48.988;8.544;2024-03-06T12:58:49;11.13;;;5.43;;
23565;SDS011;22140;48.988;8.544;2024-03-06T13:03:50;11.73;;;5.15;;
23565;SDS011;22140;48.988;8.544;2024-03-06T13:08:52;12.00;;;5.20;;
23565;SDS011;22140;48.988;8.544;2024-03-06T13:13:53;11.55;;;5.60;;
23565;SDS011;22140;48.988;8.544;2024-03-06T13:18:55;12.77;;;5.90;;
23565;SDS011;22140;48.988;8.544;2024-03-06T13:23:58;11.13;;;5.50;;
23565;SDS011;22140;48.988;8.544;2024-03-06T13:29:00;12.45;;;5.25;;
23565;SDS011;22140;48.988;8.544;2024-03-06T13:34:02;13.20;;;5.87;;
23565;SDS011;22140;48.988;8.544;2024-03-06T13:39:04;12.88;;;5.65;;
23565;SDS011;22140;48.988;8.544;2024-03-06T13:44:06;11.83;;;5.17;;
23565;SDS011;22140;48.988;8.544;2024-03-06T13:49:11;11.40;;;5.10;;
23565;SDS011;22140;48.988;8.544;2024-03-06T13:54:23;12.65;;;5.78;;
23565;SDS011;22140;48.988;8.544;2024-03-06T13:59:25;12.57;;;5.50;;
23565;SDS011;22140;48.988;8.544;2024-03-06T14:04:26;12.02;;;4.93;;
23565;SDS011;22140;48.988;8.544;2024-03-06T14:09:28;16.57;;;6.47;;
23565;SDS011;22140;48.988;8.544;2024-03-06T14:14:29;12.18;;;5.57;;
23565;SDS011;22140;48.988;8.544;2024-03-06T14:19:31;14.60;;;5.95;;
23565;SDS011;22140;48.988;8.544;2024-03-06T14:24:32;14.33;;;6.40;;
23565;SDS011;22140;48.988;8.544;2024-03-06T14:29:33;12.48;;;5.75;;
23565;SDS011;22140;48.988;8.544;2024-03-06T14:34:35;15.30;;;5.90;;
23565;SDS011;22140;48.988;8.544;2024-03-06T14:39:36;13.52;;;6.18;;
23565;SDS011;22140;48.988;8.544;2024-03-06T14:44:38;17.77;;;7.65;;
23565;SDS011;22140;48.988;8.544;2024-03-06T14:49:41;19.27;;;8.97;;
23565;SDS011;22140;48.988;8.544;2024-03-06T14:54:43;19.27;;;8.48;;
23565;SDS011;22140;48.988;8.544;2024-03-06T14:59:45;16.97;;;8.50;;
23565;SDS011;22140;48.988;8.544;2024-03-06T15:04:47;16.63;;;8.48;;
23565;SDS011;22140;48.988;8.544;2024-03-06T15:09:48;17.92;;;8.43;;
23565;SDS011;22140;48.988;8.544;2024-03-06T15:14:49;17.40;;;8.10;;
23565;SDS011;22140;48.988;8.544;2024-03-06T15:19:58;15.05;;;7.40;;
23565;SDS011;22140;48.988;8.544;2024-03-06T15:25:00;29.63;;;12.73;;
23565;SDS011;22140;48.988;8.544;2024-03-06T15:30:02;38.38;;;21.48;;
23565;SDS011;22140;48.988;8.544;2024-03-06T15:35:04;18.52;;;9.18;;
23565;SDS011;22140;48.988;8.544;2024-03-06T15:40:06;17.70;;;9.43;;
23565;SDS011;22140;48.988;8.544;2024-03-06T15:45:07;18.00;;;9.00;;
23565;SDS011;22140;48.988;8.544;2024-03-06T15:50:09;19.97;;;8.13;;
23565;SDS011;22140;48.988;8.544;2024-03-06T15:55:12;19.92;;;8.40;;
23565;SDS011;22140;48.988;8.544;2024-03-06T16:00:13;16.58;;;8.27;;
23565;SDS011;22140;48.988;8.544;2024-03-06T16:05:17;17.73;;;7.93;;
23565;SDS011;22140;48.988;8.544;2024-03-06T16:10:18;16.13;;;7.90;;
23565;SDS011;22140;48.988;8.544;2024-03-06T16:15:20;16.37;;;8.40;;
23565;SDS011;22140;48.988;8.544;2024-03-06T16:20:21;19.52;;;10.18;;
23565;SDS011;22140;48.988;8.544;2024-03-06T16:25:22;19.20;;;8.30;;
23565;SDS011;22140;48.988;8.544;2024-03-06T16:30:24;18.03;;;8.37;;
23565;SDS011;22140;48.988;8.544;2024-03-06T16:35:25;17.92;;;8.57;;
23565;SDS011;22140;48.988;8.544;2024-03-06T16:40:27;16.07;;;8.17;;
23565;SDS011;22140;48.988;8.544;2024-03-06T16:45:28;17.55;;;7.90;;
23565;SDS011;22140;48.988;8.544;2024-03-06T16:50:29;21.70;;;8.80;;
23565;SDS011;22140;48.988;8.544;2024-03-06T16:55:32;18.20;;;9.17;;
23565;SDS011;22140;48.988;8.544;2024-03-06T17:00:33;19.70;;;8.95;;
23565;SDS011;22140;48.988;8.544;2024-03-06T17:05:35;18.63;;;7.83;;
23565;SDS011;22140;48.988;8.544;2024-03-06T17:10:36;17.75;;;8.98;;
23565;SDS011;22140;48.988;8.544;2024-03-06T17:15:37;17.38;;;7.88;;
23565;SDS011;22140;48.988;8.544;2024-03-06T17:20:39;16.33;;;7.70;;
23565;SDS011;22140;48.988;8.544;2024-03-06T17:25:40;17.88;;;7.78;;
23565;SDS011;22140;48.988;8.544;2024-03-06T17:30:42;29.50;;;11.83;;
23565;SDS011;22140;48.988;8.544;2024-03-06T17:35:44;19.88;;;8.57;;
23565;SDS011;22140;48.988;8.544;2024-03-06T17:40:47;18.02;;;8.10;;
23565;SDS011;22140;48.988;8.544;2024-03-06T17:45:48;24.92;;;11.75;;
23565;SDS011;22140;48.988;8.544;2024-03-06T17:50:50;22.30;;;11.20;;
23565;SDS011;22140;48.988;8.544;2024-03-06T17:55:51;20.90;;;9.63;;
23565;SDS011;22140;48.988;8.544;2024-03-06T18:00:53;17.73;;;9.13;;
23565;SDS011;22140;48.988;8.544;2024-03-06T18:05:54;21.98;;;8.80;;
23565;SDS011;22140;48.988;8.544;2024-03-06T18:10:56;19.45;;;8.75;;
23565;SDS011;22140;48.988;8.544;2024-03-06T18:15:57;19.02;;;9.43;;
23565;SDS011;22140;48.988;8.544;2024-03-06T18:20:59;17.07;;;7.97;;
23565;SDS011;22140;48.988;8.544;2024-03-06T18:26:01;17.88;;;8.25;;
23565;SDS011;22140;48.988;8.544;2024-03-06T18:31:03;21.13;;;9.75;;
23565;SDS011;22140;48.988;8.544;2024-03-06T18:36:05;22.40;;;10.93;;
23565;SDS011;22140;48.988;8.544;2024-03-06T18:41:07;25.75;;;11.20;;
23565;SDS011;22140;48.988;8.544;2024-03-06T18:46:09;30.87;;;14.07;;
23565;SDS011;22140;48.988;8.544;2024-03-06T18:51:10;43.10;;;18.08;;
23565;SDS011;22140;48.988;8.544;2024-03-06T18:56:11;42.83;;;18.67;;
23565;SDS011;22140;48.988;8.544;2024-03-06T19:01:13;33.45;;;14.82;;
23565;SDS011;22140;48.988;8.544;2024-03-06T19:06:15;29.77;;;14.30;;
23565;SDS011;22140;48.988;8.544;2024-03-06T19:11:17;28.13;;;12.57;;
23565;SDS011;22140;48.988;8.544;2024-03-06T19:16:19;26.02;;;11.25;;
23565;SDS011;22140;48.988;8.544;2024-03-06T19:21:21;25.13;;;11.15;;
23565;SDS011;22140;48.988;8.544;2024-03-06T19:26:22;23.37;;;11.00;;
23565;SDS011;22140;48.988;8.544;2024-03-06T19:31:23;22.70;;;11.07;;
23565;SDS011;22140;48.988;8.544;2024-03-06T19:36:25;23.30;;;11.63;;
23565;SDS011;22140;48.988;8.544;2024-03-06T19:41:26;25.05;;;12.85;;
23565;SDS011;22140;48.988;8.544;2024-03-06T19:46:28;25.77;;;13.02;;
23565;SDS011;22140;48.988;8.544;2024-03-06T19:51:29;22.23;;;10.23;;
23565;SDS011;22140;48.988;8.544;2024-03-06T19:56:30;23.65;;;10.27;;
23565;SDS011;22140;48.988;8.544;2024-03-06T20:01:33;26.10;;;13.63;;
23565;SDS011;22140;48.988;8.544;2024-03-06T20:06:35;25.08;;;10.30;;
23565;SDS011;22140;48.988;8.544;2024-03-06T20:11:38;22.13;;;9.98;;
23565;SDS011;22140;48.988;8.544;2024-03-06T20:16:40;21.55;;;12.00;;
23565;SDS011;22140;48.988;8.544;2024-03-06T20:21:41;25.55;;;11.30;;
23565;SDS011;22140;48.988;8.544;2024-03-06T20:26:43;20.20;;;9.97;;
23565;SDS011;22140;48.988;8.544;2024-03-06T20:31:44;22.48;;;10.43;;
23565;SDS011;22140;48.988;8.544;2024-03-06T20:36:50;22.48;;;10.25;;
23565;SDS011;22140;48.988;8.544;2024-03-06T20:41:52;22.38;;;10.13;;
23565;SDS011;22140;48.988;8.544;2024-03-06T20:46:55;25.48;;;11.07;;
23565;SDS011;22140;48.988;8.544;2024-03-06T20:51:57;24.30;;;10.80;;
23565;SDS011;22140;48.988;8.544;2024-03-06T20:57:00;26.10;;;11.52;;
23565;SDS011;22140;48.988;8.544;2024-03-06T21:02:01;26.88;;;13.48;;
23565;SDS011;22140;48.988;8.544;2024-03-06T21:07:03;28.42;;;11.55;;
23565;SDS011;22140;48.988;8.544;2024-03-06T21:12:05;27.98;;;11.88;;
23565;SDS011;22140;48.988;8.544;2024-03-06T21:17:07;35.57;;;15.80;;
23565;SDS011;22140;48.988;8.544;2024-03-06T21:22:09;31.13;;;15.73;;
23565;SDS011;22140;48.988;8.544;2024-03-06T21:27:10;33.08;;;15.05;;
23565;SDS011;22140;48.988;8.544;2024-03-06T21:32:11;31.25;;;14.75;;
23565;SDS011;22140;48.988;8.544;2024-03-06T21:37:13;32.42;;;14.27;;
23565;SDS011;22140;48.988;8.544;2024-03-06T21:42:14;29.40;;;13.90;;
23565;SDS011;22140;48.988;8.544;2024-03-06T21:47:16;23.38;;;10.40;;
23565;SDS011;22140;48.988;8.544;2024-03-06T21:52:18;27.25;;;10.95;;
23565;SDS011;22140;48.988;8.544;2024-03-06T21:57:19;34.33;;;12.07;;
23565;SDS011;22140;48.988;8.544;2024-03-06T22:02:21;29.17;;;11.27;;
23565;SDS011;22140;48.988;8.544;2024-03-06T22:07:22;24.93;;;11.53;;
23565;SDS011;22140;48.988;8.544;2024-03-06T22:12:23;26.75;;;11.00;;
23565;SDS011;22140;48.988;8.544;2024-03-06T22:17:26;29.80;;;13.23;;
23565;SDS011;22140;48.988;8.544;2024-03-06T22:22:28;31.40;;;12.73;;
23565;SDS011;22140;48.988;8.544;2024-03-06T22:27:30;30.65;;;12.90;;
23565;SDS011;22140;48.988;8.544;2024-03-06T22:32:31;28.80;;;12.17;;
23565;SDS011;22140;48.988;8.544;2024-03-06T22:37:33;30.35;;;13.00;;
23565;SDS011;22140;48.988;8.544;2024-03-06T22:42:35;27.40;;;11.23;;
23565;SDS011;22140;48.988;8.544;2024-03-06T22:47:36;30.00;;;12.23;;
23565;SDS011;22140;48.988;8.544;2024-03-06T22:52:38;28.95;;;11.45;;
23565;SDS011;22140;48.988;8.544;2024-03-06T22:57:39;28.73;;;11.90;;
23565;SDS011;22140;48.988;8.544;2024-03-06T23:02:41;27.63;;;12.35;;
23565;SDS011;22140;48.988;8.544;2024-03-06T23:07:42;34.10;;;12.23;;
23565;SDS011;22140;48.988;8.544;2024-03-06T23:12:44;29.05;;;12.57;;
23565;SDS011;22140;48.988;8.544;2024-03-06T23:17:46;32.90;;;13.75;;
23565;SDS011;22140;48.988;8.544;2024-03-06T23:22:48;35.17;;;13.77;;
23565;SDS011;22140;48.988;8.544;2024-03-06T23:27:49;29.42;;;13.07;;
23565;SDS011;22140;48.988;8.544;2024-03-06T23:32:51;31.17;;;12.82;;
23565;SDS011;22140;48.988;8.544;2024-03-06T23:37:52;28.33;;;12.48;;
23565;SDS011;22140;48.988;8.544;2024-03-06T23:42:54;31.67;;;11.82;;
23565;SDS011;22140;48.988;8.544;2024-03-06T23:47:55;22.37;;;9.90;;
23565;SDS011;22140;48.988;8.544;2024-03-06T23:52:57;25.58;;;10.43;;
23565;SDS011;22140;48.988;8.544;2024-03-06T23:57:58;23.50;;;10.68;;
